Mariner Of The Seas — C6FV9 — position and weather

sailwx.info

Track history (hours):
 
Tides and Currents Weather Stations Pressure Air Temp Water Temp Dewpoint Dewpoint Depression Visibility Wind Speed Wind Dir Waves Ship Positions

Mariner Of The Seas

Operator: Royal Caribbean Cruises Ltd

Last reported at 2014-Aug-26 13:32 UTC. Time now 2014-Aug-27 23:17 UTC.
Position N 31°13' E 122°56'.

Type: Passenger vessel. MMSI: 311493000.

Date/timePositionNaut miles runAvg speedWind from/ knotsBaromVisibWave heightAir tempDewpointWater temp
2014-Aug-26 13:32N 31°13' E 122°56'6713.4
2014-Aug-26 08:33N 31°21' E 121°39'8 7.3
2014-Aug-26 07:28N 31°25' E 121°30'0 0.0
2014-Aug-26 06:25N 31°25' E 121°30'0 0.0
2014-Aug-26 05:28N 31°25' E 121°30'0 0.0
2014-Aug-26 04:28N 31°25' E 121°30'0 0.0
2014-Aug-26 03:28N 31°25' E 121°30'0 0.0
2014-Aug-26 02:28N 31°25' E 121°30'0 0.0
2014-Aug-26 01:28N 31°25' E 121°30'0 0.0
2014-Aug-26 00:22N 31°25' E 121°30'0 0.0
2014-Aug-25 23:28N 31°25' E 121°30'1 0.6
2014-Aug-25 22:33N 31°25' E 121°31'1010.4
2014-Aug-25 21:33N 31°20' E 121°42'3310.8
2014-Aug-25 18:31N 31°07' E 122°17'  
2014-Aug-22 12:33N 31°23' E 121°35'5 2.3
2014-Aug-22 10:22N 31°25' E 121°30'0 0.0
2014-Aug-22 09:28N 31°25' E 121°30'0 0.0
2014-Aug-22 07:22N 31°25' E 121°30'0 0.0
2014-Aug-22 06:28N 31°25' E 121°30'0 0.0
2014-Aug-22 05:22N 31°25' E 121°30'0 0.0
2014-Aug-22 04:16N 31°25' E 121°30'0 0.0
2014-Aug-22 03:28N 31°25' E 121°30'0 0.0
2014-Aug-22 02:22N 31°25' E 121°30'0 0.0
2014-Aug-22 01:22N 31°25' E 121°30'0 0.0
2014-Aug-21 22:16N 31°25' E 121°30'0 0.0
2014-Aug-21 21:33N 31°25' E 121°30'7 6.6
2014-Aug-21 20:32N 31°22' E 121°37'3510.9
2014-Aug-21 17:17N 31°08' E 122°15'911.8
2014-Aug-21 16:31N 31°06' E 122°26'  
Track history (hours):
 
Tides and Currents Weather Stations Pressure Air Temp Water Temp Dewpoint Dewpoint Depression Visibility Wind Speed Wind Dir Waves Ship Positions

Mariner Of The Seas

Operator: Royal Caribbean Cruises Ltd

Last reported at 2014-Aug-26 13:32 UTC. Time now 2014-Aug-27 23:17 UTC.
Position N 31°13' E 122°56'.

Type: Passenger vessel. MMSI: 311493000.

Date/timePositionNaut miles runAvg speedWind from/ knotsBaromVisibWave heightAir tempDewpointWater temp
2014-Aug-26 13:32N 31°13' E 122°56'6713.4
2014-Aug-26 08:33N 31°21' E 121°39'8 7.3
2014-Aug-26 07:28N 31°25' E 121°30'0 0.0
2014-Aug-26 06:25N 31°25' E 121°30'0 0.0
2014-Aug-26 05:28N 31°25' E 121°30'0 0.0
2014-Aug-26 04:28N 31°25' E 121°30'0 0.0
2014-Aug-26 03:28N 31°25' E 121°30'0 0.0
2014-Aug-26 02:28N 31°25' E 121°30'0 0.0
2014-Aug-26 01:28N 31°25' E 121°30'0 0.0
2014-Aug-26 00:22N 31°25' E 121°30'0 0.0
2014-Aug-25 23:28N 31°25' E 121°30'1 0.6
2014-Aug-25 22:33N 31°25' E 121°31'1010.4
2014-Aug-25 21:33N 31°20' E 121°42'3310.8
2014-Aug-25 18:31N 31°07' E 122°17'  
2014-Aug-22 12:33N 31°23' E 121°35'5 2.3
2014-Aug-22 10:22N 31°25' E 121°30'0 0.0
2014-Aug-22 09:28N 31°25' E 121°30'0 0.0
2014-Aug-22 07:22N 31°25' E 121°30'0 0.0
2014-Aug-22 06:28N 31°25' E 121°30'0 0.0
2014-Aug-22 05:22N 31°25' E 121°30'0 0.0
2014-Aug-22 04:16N 31°25' E 121°30'0 0.0
2014-Aug-22 03:28N 31°25' E 121°30'0 0.0
2014-Aug-22 02:22N 31°25' E 121°30'0 0.0
2014-Aug-22 01:22N 31°25' E 121°30'0 0.0
2014-Aug-21 22:16N 31°25' E 121°30'0 0.0
2014-Aug-21 21:33N 31°25' E 121°30'7 6.6
2014-Aug-21 20:32N 31°22' E 121°37'3510.9
2014-Aug-21 17:17N 31°08' E 122°15'911.8
2014-Aug-21 16:31N 31°06' E 122°26'  

Dump ship's entire track history